createdAt,value
2023-05-14T00:00:04.156Z,4.35
2023-05-14T00:03:08.565Z,4.13
2023-05-14T00:06:13.211Z,4.63
2023-05-14T00:09:17.115Z,4.03
2023-05-14T00:12:21.099Z,4.45
2023-05-14T00:15:25.248Z,4.05
2023-05-14T00:18:29.509Z,4.38
2023-05-14T00:21:33.682Z,4.30
2023-05-14T00:24:37.693Z,4.22
2023-05-14T00:27:41.792Z,4.43
2023-05-14T00:30:45.931Z,4.32
2023-05-14T00:33:50.201Z,4.40
2023-05-14T00:36:54.240Z,4.53
2023-05-14T00:39:58.675Z,4.95
2023-05-14T00:43:03.678Z,4.68
2023-05-14T00:46:08.136Z,4.55
2023-05-14T00:49:12.282Z,4.53
2023-05-14T00:52:16.783Z,3.97
2023-05-14T00:55:21.603Z,4.35
2023-05-14T00:58:26.252Z,4.53
2023-05-14T01:01:31.154Z,4.13
2023-05-14T01:04:35.334Z,4.57
2023-05-14T01:07:49.270Z,4.75
2023-05-14T01:11:03.536Z,4.40
2023-05-14T01:14:36.020Z,4.65
2023-05-14T01:17:48.608Z,4.20
2023-05-14T01:20:53.993Z,4.38
2023-05-14T01:23:58.149Z,4.50
2023-05-14T01:27:23.382Z,4.00
2023-05-14T01:30:42.340Z,4.00
2023-05-14T01:33:49.147Z,4.13
2023-05-14T01:36:53.493Z,4.10
2023-05-14T01:40:00.201Z,4.53
2023-05-14T01:43:05.263Z,4.30
2023-05-14T01:46:09.702Z,4.50
2023-05-14T01:49:13.598Z,4.78
2023-05-14T01:52:20.879Z,4.20
2023-05-14T01:55:25.702Z,4.68
2023-05-14T01:58:29.701Z,4.28
2023-05-14T02:01:33.968Z,4.38
2023-05-14T02:04:37.954Z,4.68
2023-05-14T02:07:41.814Z,4.55
2023-05-14T02:10:45.756Z,5.10
2023-05-14T02:13:50.075Z,4.68
2023-05-14T02:16:54.302Z,4.65
2023-05-14T02:19:58.389Z,4.65
2023-05-14T02:23:02.322Z,4.90
2023-05-14T02:26:06.270Z,4.70
2023-05-14T02:29:10.494Z,4.40
2023-05-14T02:32:14.545Z,4.68
2023-05-14T02:35:18.302Z,5.00
2023-05-14T02:38:23.623Z,5.38
2023-05-14T02:41:27.896Z,5.03
2023-05-14T02:44:32.327Z,4.80
2023-05-14T02:47:37.985Z,4.93
2023-05-14T02:50:42.633Z,4.80
2023-05-14T02:53:46.897Z,5.38
2023-05-14T02:56:50.879Z,4.60
2023-05-14T02:59:55.084Z,4.82
2023-05-14T03:02:59.377Z,4.82
2023-05-14T03:06:04.733Z,4.82
2023-05-14T03:09:08.718Z,4.68
2023-05-14T03:12:14.281Z,5.32
2023-05-14T03:15:18.169Z,5.20
2023-05-14T03:18:22.797Z,4.50
2023-05-14T03:21:27.231Z,4.85
2023-05-14T03:24:31.513Z,5.22
2023-05-14T03:27:35.991Z,5.65
2023-05-14T03:30:39.872Z,5.35
2023-05-14T03:33:44.348Z,5.32
2023-05-14T03:36:48.566Z,4.80
2023-05-14T03:39:52.728Z,5.53
2023-05-14T03:42:57.084Z,5.07
2023-05-14T03:46:01.321Z,5.07
2023-05-14T03:49:06.794Z,5.00
2023-05-14T03:52:10.648Z,5.43
2023-05-14T03:55:14.428Z,5.03
2023-05-14T03:58:18.301Z,4.75
2023-05-14T04:01:22.537Z,5.00
2023-05-14T04:04:26.479Z,5.25
2023-05-14T04:07:30.759Z,4.88
2023-05-14T04:10:34.564Z,5.65
2023-05-14T04:13:38.778Z,5.15
2023-05-14T04:16:43.240Z,4.90
2023-05-14T04:19:46.936Z,4.90
2023-05-14T04:22:51.030Z,4.93
2023-05-14T04:25:55.060Z,4.95
2023-05-14T04:29:02.932Z,4.90
2023-05-14T04:32:07.743Z,4.82
2023-05-14T04:35:12.904Z,4.88
2023-05-14T04:38:17.216Z,4.85
2023-05-14T04:41:21.328Z,5.07
2023-05-14T04:44:26.199Z,4.55
2023-05-14T04:47:30.379Z,4.75
2023-05-14T04:50:35.058Z,4.85
2023-05-14T04:53:39.023Z,5.05
2023-05-14T04:56:43.444Z,4.90
2023-05-14T04:59:47.613Z,4.60
2023-05-14T05:02:51.628Z,4.95
2023-05-14T05:05:55.989Z,4.90
2023-05-14T05:09:01.987Z,4.70
2023-05-14T05:12:06.934Z,4.57
2023-05-14T05:15:11.080Z,4.22
2023-05-14T05:18:15.114Z,4.60
2023-05-14T05:21:19.399Z,4.70
2023-05-14T05:24:23.341Z,5.00
2023-05-14T05:27:27.529Z,5.13
2023-05-14T05:30:31.438Z,4.90
2023-05-14T05:33:35.977Z,4.75
2023-05-14T05:36:40.269Z,5.20
2023-05-14T05:39:44.128Z,4.70
2023-05-14T05:42:47.870Z,5.35
2023-05-14T05:45:51.589Z,5.13
2023-05-14T05:48:55.710Z,4.93
2023-05-14T05:51:59.868Z,4.93
2023-05-14T05:55:04.225Z,4.90
2023-05-14T05:58:08.158Z,5.00
2023-05-14T06:01:12.290Z,5.15
2023-05-14T06:04:16.509Z,4.80
2023-05-14T06:07:21.036Z,5.00
2023-05-14T06:10:24.851Z,4.88
2023-05-14T06:13:28.958Z,4.93
2023-05-14T06:16:33.536Z,5.10
2023-05-14T06:19:37.534Z,4.60
2023-05-14T06:22:41.378Z,4.45
2023-05-14T06:25:45.359Z,4.97
2023-05-14T06:28:49.539Z,5.05
2023-05-14T06:31:53.959Z,5.10
2023-05-14T06:34:58.574Z,4.60
2023-05-14T06:38:02.328Z,4.88
2023-05-14T06:41:06.554Z,4.82
2023-05-14T06:44:11.034Z,4.55
2023-05-14T06:47:15.514Z,4.60
2023-05-14T06:50:19.618Z,4.60
2023-05-14T06:53:23.471Z,4.72
2023-05-14T06:56:27.494Z,4.38
2023-05-14T06:59:31.684Z,4.75
2023-05-14T07:02:36.001Z,4.30
2023-05-14T07:05:41.273Z,4.03
2023-05-14T07:08:47.895Z,4.93
2023-05-14T07:11:51.697Z,4.35
2023-05-14T07:14:56.946Z,4.35
2023-05-14T07:18:01.195Z,4.25
2023-05-14T07:21:06.534Z,3.92
2023-05-14T07:24:10.272Z,3.95
2023-05-14T07:27:14.086Z,3.90
2023-05-14T07:30:17.945Z,3.88
2023-05-14T07:33:22.734Z,3.80
2023-05-14T07:36:27.311Z,3.30
2023-05-14T07:39:31.206Z,3.75
2023-05-14T07:42:36.989Z,3.50
2023-05-14T07:45:41.672Z,3.53
2023-05-14T07:48:45.843Z,3.47
2023-05-14T07:51:50.440Z,3.80
2023-05-14T07:54:54.986Z,3.30
2023-05-14T07:57:59.264Z,3.30
2023-05-14T08:01:06.959Z,2.97
2023-05-14T08:04:16.172Z,3.40
2023-05-14T08:07:19.921Z,3.20
2023-05-14T08:10:24.030Z,3.10
2023-05-14T08:13:28.126Z,3.25
2023-05-14T08:16:32.020Z,3.33
2023-05-14T08:19:35.947Z,3.65
2023-05-14T08:22:39.809Z,3.63
2023-05-14T08:25:44.065Z,3.30
2023-05-14T08:28:48.030Z,3.40
2023-05-14T08:31:52.138Z,3.72
2023-05-14T08:34:56.093Z,3.67
2023-05-14T08:38:00.423Z,3.70
2023-05-14T08:41:06.017Z,3.85
2023-05-14T08:44:29.711Z,3.97
2023-05-14T08:50:38.106Z,4.50
2023-05-14T08:53:42.132Z,3.45
2023-05-14T08:56:51.153Z,3.85
2023-05-14T08:59:56.282Z,3.45
2023-05-14T09:03:00.757Z,3.80
2023-05-14T09:06:05.956Z,4.13
2023-05-14T09:09:11.298Z,4.00
2023-05-14T09:12:15.334Z,3.70
2023-05-14T09:15:20.499Z,3.55
2023-05-14T09:18:25.369Z,3.85
2023-05-14T09:21:32.819Z,3.60
2023-05-14T09:24:38.867Z,3.50
2023-05-14T09:27:50.058Z,3.70
2023-05-14T09:30:54.902Z,3.75
2023-05-14T09:34:00.116Z,3.90
2023-05-14T09:37:08.685Z,3.50
2023-05-14T09:40:14.405Z,3.75
2023-05-14T09:43:18.539Z,3.58
2023-05-14T09:46:23.606Z,3.65
2023-05-14T09:49:28.319Z,3.70
2023-05-14T09:52:32.310Z,3.40
2023-05-14T09:55:38.175Z,2.90
2023-05-14T09:58:42.448Z,3.10
2023-05-14T10:01:46.742Z,3.38
2023-05-14T10:04:54.712Z,3.80
2023-05-14T10:08:00.008Z,3.70
2023-05-14T10:11:08.162Z,3.60
2023-05-14T10:14:28.318Z,3.42
2023-05-14T10:17:34.802Z,3.33
2023-05-14T10:20:41.213Z,3.63
2023-05-14T10:23:46.047Z,3.70
2023-05-14T10:26:50.151Z,3.50
2023-05-14T10:29:55.733Z,3.33
2023-05-14T10:33:11.604Z,3.30
2023-05-14T10:36:16.009Z,3.40
2023-05-14T10:39:20.057Z,3.38
2023-05-14T10:42:43.586Z,3.38
2023-05-14T10:45:48.122Z,3.10
2023-05-14T10:48:52.454Z,3.20
2023-05-14T10:51:57.160Z,3.30
2023-05-14T10:55:03.799Z,3.72
2023-05-14T10:58:09.868Z,3.40
2023-05-14T11:01:14.291Z,3.72
2023-05-14T11:04:19.313Z,3.25
2023-05-14T11:07:35.232Z,3.15
2023-05-14T11:10:39.416Z,3.40
2023-05-14T11:13:44.643Z,3.78
2023-05-14T11:16:50.036Z,3.83
2023-05-14T11:19:54.404Z,3.25
2023-05-14T11:22:58.478Z,3.25
2023-05-14T11:26:02.309Z,3.28
2023-05-14T11:29:06.442Z,3.10
2023-05-14T11:32:11.119Z,3.25
2023-05-14T11:35:16.086Z,3.13
2023-05-14T11:38:21.160Z,3.45
2023-05-14T11:41:26.232Z,3.45
2023-05-14T11:44:31.340Z,3.80
2023-05-14T11:47:44.513Z,3.67
2023-05-14T11:50:51.013Z,3.88
2023-05-14T11:53:54.788Z,3.63
2023-05-14T11:57:01.919Z,4.00
2023-05-14T12:00:09.097Z,3.40
2023-05-14T12:03:13.095Z,3.80
2023-05-14T12:06:18.399Z,3.28
2023-05-14T12:09:23.046Z,3.08
2023-05-14T12:12:27.269Z,2.95
2023-05-14T12:15:31.355Z,3.10
2023-05-14T12:18:35.579Z,2.72
2023-05-14T12:21:40.687Z,2.72
2023-05-14T12:24:53.801Z,2.80
2023-05-14T12:27:57.774Z,2.42
2023-05-14T12:31:01.801Z,2.40
2023-05-14T12:34:07.156Z,2.80
2023-05-14T12:37:11.405Z,2.83
2023-05-14T12:40:15.479Z,2.65
2023-05-14T12:43:19.813Z,2.60
2023-05-14T12:46:27.355Z,2.70
2023-05-14T12:49:31.527Z,2.83
2023-05-14T12:52:39.381Z,3.17
2023-05-14T12:55:43.944Z,3.10
2023-05-14T12:58:48.208Z,3.33
2023-05-14T13:01:52.198Z,3.03
2023-05-14T13:04:56.307Z,3.53
2023-05-14T13:08:03.544Z,3.20
2023-05-14T13:11:08.237Z,3.28
2023-05-14T13:14:12.211Z,2.65
2023-05-14T13:17:16.041Z,2.10
2023-05-14T13:20:20.160Z,2.58
2023-05-14T13:23:24.329Z,2.10
2023-05-14T13:26:28.773Z,1.77
2023-05-14T13:29:32.783Z,1.98
2023-05-14T13:32:36.658Z,1.80
2023-05-14T13:35:40.622Z,2.00
2023-05-14T13:38:46.066Z,2.03
2023-05-14T13:41:51.516Z,2.00
2023-05-14T13:44:56.307Z,2.20
2023-05-14T13:48:00.196Z,1.95
2023-05-14T13:51:04.245Z,1.83
2023-05-14T13:54:08.100Z,2.30
2023-05-14T13:57:12.972Z,2.08
2023-05-14T14:00:17.765Z,2.10
2023-05-14T14:03:22.355Z,2.20
2023-05-14T14:06:27.471Z,2.22
2023-05-14T14:09:35.047Z,2.20
2023-05-14T14:12:38.696Z,2.30
2023-05-14T14:15:43.657Z,2.30
2023-05-14T14:18:48.259Z,2.38
2023-05-14T14:21:52.554Z,2.40
2023-05-14T14:24:56.589Z,2.20
2023-05-14T14:28:01.079Z,2.00
2023-05-14T14:31:05.658Z,2.10
2023-05-14T14:34:09.869Z,2.47
2023-05-14T14:37:13.950Z,2.83
2023-05-14T14:40:17.896Z,2.50
2023-05-14T14:43:22.141Z,2.38
2023-05-14T14:46:26.273Z,2.60
2023-05-14T14:49:31.283Z,2.58
2023-05-14T14:52:36.519Z,2.70
2023-05-14T14:55:40.875Z,3.20
2023-05-14T14:58:45.544Z,2.90
2023-05-14T15:01:49.679Z,3.10
2023-05-14T15:04:54.747Z,3.63
2023-05-14T15:07:58.854Z,3.05
2023-05-14T15:11:02.613Z,3.33
2023-05-14T15:14:06.432Z,2.70
2023-05-14T15:17:10.719Z,3.20
2023-05-14T15:20:15.357Z,3.35
2023-05-14T15:23:19.408Z,3.20
2023-05-14T15:26:23.267Z,2.90
2023-05-14T15:29:28.609Z,3.03
2023-05-14T15:32:33.669Z,3.53
2023-05-14T15:35:37.798Z,3.22
2023-05-14T15:38:42.266Z,2.90
2023-05-14T15:41:46.241Z,3.70
2023-05-14T15:44:49.898Z,3.10
2023-05-14T15:47:54.648Z,3.08
2023-05-14T15:50:59.115Z,3.45
2023-05-14T15:54:03.605Z,3.30
2023-05-14T15:57:07.560Z,3.03
2023-05-14T16:00:12.406Z,3.17
2023-05-14T16:03:17.448Z,3.28
2023-05-14T16:06:21.721Z,3.90
2023-05-14T16:09:26.708Z,3.53
2023-05-14T16:12:30.489Z,3.30
2023-05-14T16:15:34.810Z,3.38
2023-05-14T16:18:40.230Z,2.95
2023-05-14T16:21:44.957Z,3.00
2023-05-14T16:24:48.848Z,3.20
2023-05-14T16:27:52.885Z,3.40
2023-05-14T16:30:56.964Z,3.22
2023-05-14T16:34:01.126Z,3.63
2023-05-14T16:37:05.490Z,3.20
2023-05-14T16:40:11.650Z,3.58
2023-05-14T16:43:15.858Z,3.42
2023-05-14T16:46:20.252Z,3.20
2023-05-14T16:49:24.080Z,3.30
2023-05-14T16:52:28.236Z,3.70
2023-05-14T16:55:32.399Z,3.35
2023-05-14T16:58:36.735Z,3.28
2023-05-14T17:01:41.811Z,2.58
2023-05-14T17:04:46.131Z,2.70
2023-05-14T17:07:50.681Z,2.67
2023-05-14T17:10:54.670Z,2.60
2023-05-14T17:13:58.439Z,2.88
2023-05-14T17:17:02.351Z,2.60
2023-05-14T17:20:06.832Z,2.63
2023-05-14T17:23:10.729Z,2.63
2023-05-14T17:26:14.836Z,2.15
2023-05-14T17:29:18.618Z,2.92
2023-05-14T17:32:22.943Z,2.63
2023-05-14T17:35:27.144Z,2.40
2023-05-14T17:38:31.364Z,2.80
2023-05-14T17:41:35.477Z,2.40
2023-05-14T17:44:39.529Z,2.70
2023-05-14T17:47:43.557Z,2.72
2023-05-14T17:50:47.838Z,2.13
2023-05-14T17:53:52.232Z,2.40
2023-05-14T17:56:56.503Z,2.17
2023-05-14T18:00:00.828Z,2.17
2023-05-14T18:03:05.138Z,2.40
2023-05-14T18:06:09.306Z,1.80
2023-05-14T18:09:13.560Z,2.42
2023-05-14T18:12:17.742Z,2.00
2023-05-14T18:15:25.004Z,2.20
2023-05-14T18:18:28.873Z,2.50
2023-05-14T18:21:32.892Z,2.22
2023-05-14T18:24:37.125Z,2.40
2023-05-14T18:27:46.986Z,2.45
2023-05-14T18:30:51.019Z,2.50
2023-05-14T18:33:55.276Z,2.40
2023-05-14T18:36:59.248Z,2.45
2023-05-14T18:40:05.004Z,2.80
2023-05-14T18:43:09.037Z,2.60
2023-05-14T18:46:13.608Z,2.60
2023-05-14T18:49:17.706Z,2.65
2023-05-14T18:52:22.800Z,2.70
2023-05-14T18:55:27.358Z,2.80
2023-05-14T18:58:32.066Z,2.72
2023-05-14T19:01:36.377Z,3.17
2023-05-14T19:04:51.026Z,2.90
2023-05-14T19:07:56.933Z,2.53
2023-05-14T19:11:01.007Z,2.90
2023-05-14T19:14:04.658Z,2.97
2023-05-14T19:17:08.550Z,2.78
2023-05-14T19:20:12.674Z,2.80
2023-05-14T19:23:16.870Z,2.90
2023-05-14T19:26:21.630Z,2.72
2023-05-14T19:29:25.520Z,2.90
2023-05-14T19:32:29.644Z,2.90
2023-05-14T19:35:34.349Z,2.92
2023-05-14T19:38:39.603Z,2.78
2023-05-14T19:41:44.066Z,3.00
2023-05-14T19:44:48.175Z,2.85
2023-05-14T19:47:51.920Z,2.80
2023-05-14T19:50:56.284Z,3.00
2023-05-14T19:54:00.492Z,3.20
2023-05-14T19:57:05.309Z,3.00
2023-05-14T20:00:10.477Z,3.03
2023-05-14T20:03:14.820Z,3.40
2023-05-14T20:06:18.937Z,3.70
2023-05-14T20:09:22.861Z,3.22
2023-05-14T20:12:29.997Z,3.50
2023-05-14T20:15:34.715Z,3.50
2023-05-14T20:18:38.532Z,3.67
2023-05-14T20:21:42.595Z,3.38
2023-05-14T20:24:46.459Z,3.70
2023-05-14T20:27:52.473Z,3.13
2023-05-14T20:30:58.884Z,3.58
2023-05-14T20:34:03.573Z,3.38
2023-05-14T20:37:08.063Z,3.45
2023-05-14T20:40:12.661Z,3.50
2023-05-14T20:43:16.820Z,3.65
2023-05-14T20:46:21.248Z,3.60
2023-05-14T20:49:25.467Z,4.10
2023-05-14T20:52:29.599Z,8.40
2023-05-14T20:55:33.834Z,13.55
2023-05-14T20:58:37.810Z,4.40
2023-05-14T21:01:42.680Z,3.58
2023-05-14T21:04:47.110Z,4.00
2023-05-14T21:07:51.533Z,4.75
2023-05-14T21:10:55.626Z,4.72
2023-05-14T21:13:59.590Z,4.60
2023-05-14T21:17:03.806Z,4.40
2023-05-14T21:20:08.613Z,4.38
2023-05-14T21:23:13.028Z,3.78
2023-05-14T21:26:17.178Z,4.25
2023-05-14T21:29:21.267Z,4.50
2023-05-14T21:32:25.623Z,4.10
2023-05-14T21:35:29.726Z,4.60
2023-05-14T21:38:34.414Z,3.90
2023-05-14T21:41:38.534Z,4.45
2023-05-14T21:44:42.782Z,4.13
2023-05-14T21:47:47.250Z,3.80
2023-05-14T21:50:51.827Z,4.50
2023-05-14T21:53:55.905Z,4.57
2023-05-14T21:56:59.716Z,4.53
2023-05-14T22:00:07.920Z,4.82
2023-05-14T22:03:11.963Z,4.63
2023-05-14T22:06:16.708Z,4.25
2023-05-14T22:09:21.036Z,5.25
2023-05-14T22:12:24.845Z,4.70
2023-05-14T22:15:28.967Z,4.80
2023-05-14T22:18:34.197Z,4.40
2023-05-14T22:21:38.200Z,5.20
2023-05-14T22:24:42.478Z,4.90
2023-05-14T22:27:46.272Z,5.65
2023-05-14T22:30:50.181Z,4.63
2023-05-14T22:33:54.340Z,4.97
2023-05-14T22:36:58.403Z,4.88
2023-05-14T22:40:05.063Z,5.40
2023-05-14T22:43:08.845Z,5.60
2023-05-14T22:46:12.838Z,5.35
2023-05-14T22:49:17.125Z,5.15
2023-05-14T22:52:21.597Z,5.80
2023-05-14T22:55:25.898Z,6.03
2023-05-14T22:58:30.367Z,5.40
2023-05-14T23:01:34.020Z,5.43
2023-05-14T23:04:37.770Z,5.65
2023-05-14T23:07:41.727Z,6.07
2023-05-14T23:10:45.795Z,6.30
2023-05-14T23:13:50.470Z,5.63
2023-05-14T23:16:54.686Z,6.00
2023-05-14T23:19:58.944Z,5.90
2023-05-14T23:23:02.847Z,6.07
2023-05-14T23:26:07.237Z,6.38
2023-05-14T23:29:11.410Z,5.55
2023-05-14T23:32:15.620Z,6.00
2023-05-14T23:35:19.502Z,5.70
2023-05-14T23:38:23.968Z,5.82
2023-05-14T23:41:27.998Z,5.80
2023-05-14T23:44:31.971Z,6.10
2023-05-14T23:47:36.149Z,6.70
2023-05-14T23:50:40.441Z,6.55
2023-05-14T23:53:44.389Z,5.80
2023-05-14T23:56:48.594Z,6.43
2023-05-14T23:59:52.860Z,6.70
